createdAt,value
2022-11-15T00:00:57.187Z,28.55
2022-11-15T00:03:28.951Z,27.05
2022-11-15T00:05:56.010Z,41.08
2022-11-15T00:08:22.658Z,34.22
2022-11-15T00:10:57.345Z,28.88
2022-11-15T00:13:24.109Z,30.02
2022-11-15T00:15:50.845Z,28.58
2022-11-15T00:18:18.185Z,33.60
2022-11-15T00:20:45.322Z,27.25
2022-11-15T00:23:12.068Z,30.08
2022-11-15T00:25:38.740Z,25.73
2022-11-15T00:28:05.683Z,29.85
2022-11-15T00:30:32.355Z,32.00
2022-11-15T00:33:05.696Z,36.05
2022-11-15T00:35:34.565Z,27.73
2022-11-15T00:38:02.023Z,30.05
2022-11-15T00:40:29.302Z,26.83
2022-11-15T00:42:56.301Z,27.13
2022-11-15T00:45:23.228Z,31.95
2022-11-15T00:47:49.863Z,29.80
2022-11-15T00:50:16.829Z,33.55
2022-11-15T00:52:44.044Z,28.67
2022-11-15T00:55:18.171Z,30.40
2022-11-15T00:57:45.470Z,26.40
2022-11-15T01:00:13.239Z,33.03
2022-11-15T01:02:39.879Z,26.45
2022-11-15T01:05:07.293Z,31.05
2022-11-15T01:07:34.140Z,26.65
2022-11-15T01:10:00.890Z,28.23
2022-11-15T01:12:28.027Z,29.33
2022-11-15T01:14:55.374Z,29.92
2022-11-15T01:17:22.108Z,28.23
2022-11-15T01:19:48.724Z,26.88
2022-11-15T01:22:15.441Z,31.65
2022-11-15T01:24:42.134Z,29.75
2022-11-15T01:27:09.259Z,30.60
2022-11-15T01:29:35.961Z,25.50
2022-11-15T01:32:02.642Z,23.33
2022-11-15T01:34:29.294Z,27.05
2022-11-15T01:36:56.047Z,24.65
2022-11-15T01:39:22.695Z,24.65
2022-11-15T01:41:49.335Z,23.75
2022-11-15T01:44:34.544Z,21.85
2022-11-15T01:49:34.339Z,28.15
2022-11-15T01:52:04.382Z,23.38
2022-11-15T01:54:31.977Z,24.08
2022-11-15T01:57:09.681Z,25.08
2022-11-15T01:59:43.492Z,23.42
2022-11-15T02:02:10.220Z,26.55
2022-11-15T02:04:42.073Z,21.90
2022-11-15T02:07:11.795Z,29.45
2022-11-15T02:09:39.373Z,23.88
2022-11-15T02:12:08.303Z,25.10
2022-11-15T02:14:36.961Z,26.55
2022-11-15T02:17:12.126Z,24.58
2022-11-15T02:20:29.339Z,25.38
2022-11-15T02:23:23.862Z,26.92
2022-11-15T02:26:02.468Z,26.92
2022-11-15T02:29:09.853Z,26.60
2022-11-15T02:31:48.684Z,21.65
2022-11-15T02:34:23.621Z,23.02
2022-11-15T02:37:05.305Z,24.05
2022-11-15T02:39:53.050Z,25.27
2022-11-15T02:42:44.336Z,24.77
2022-11-15T02:45:18.827Z,22.83
2022-11-15T02:47:49.007Z,22.90
2022-11-15T02:50:19.738Z,19.63
2022-11-15T02:52:47.885Z,22.27
2022-11-15T02:55:34.649Z,23.27
2022-11-15T02:58:18.913Z,22.92
2022-11-15T03:01:08.312Z,19.83
2022-11-15T03:03:49.857Z,25.02
2022-11-15T03:06:30.186Z,24.20
2022-11-15T03:09:26.434Z,24.23
2022-11-15T03:12:08.115Z,27.00
2022-11-15T03:14:40.819Z,18.92
2022-11-15T03:17:30.723Z,23.50
2022-11-15T03:20:01.083Z,22.60
2022-11-15T03:22:31.680Z,22.13
2022-11-15T03:25:03.035Z,20.05
2022-11-15T03:27:36.798Z,25.15
2022-11-15T03:30:07.422Z,20.70
2022-11-15T03:32:56.155Z,17.60
2022-11-15T03:35:28.375Z,21.05
2022-11-15T03:38:18.070Z,19.25
2022-11-15T03:40:52.263Z,20.45
2022-11-15T03:43:41.862Z,25.45
2022-11-15T03:46:25.547Z,19.73
2022-11-15T03:48:58.690Z,21.10
2022-11-15T03:51:25.368Z,21.13
2022-11-15T03:53:52.647Z,24.15
2022-11-15T03:56:19.318Z,26.20
2022-11-15T03:58:45.910Z,20.88
2022-11-15T04:01:12.598Z,22.65
2022-11-15T04:03:39.254Z,19.52
2022-11-15T04:06:06.196Z,21.80
2022-11-15T04:08:32.797Z,27.33
2022-11-15T04:11:01.181Z,20.48
2022-11-15T04:13:29.073Z,17.23
2022-11-15T04:15:55.886Z,18.92
2022-11-15T04:18:22.991Z,16.48
2022-11-15T04:21:08.015Z,18.67
2022-11-15T04:24:06.789Z,22.48
2022-11-15T04:26:33.762Z,20.73
2022-11-15T04:29:38.726Z,18.30
2022-11-15T04:32:07.501Z,13.20
2022-11-15T04:34:34.238Z,17.67
2022-11-15T04:37:13.156Z,18.42
2022-11-15T04:39:44.153Z,21.27
2022-11-15T04:42:11.273Z,20.75
2022-11-15T04:44:38.297Z,20.25
2022-11-15T04:47:05.491Z,20.92
2022-11-15T04:49:32.182Z,20.55
2022-11-15T04:51:58.870Z,18.67
2022-11-15T04:54:25.532Z,19.83
2022-11-15T04:56:52.226Z,21.17
2022-11-15T04:59:18.866Z,19.98
2022-11-15T05:01:45.585Z,19.77
2022-11-15T05:04:21.106Z,25.88
2022-11-15T05:06:50.155Z,20.00
2022-11-15T05:09:18.189Z,26.10
2022-11-15T05:11:45.055Z,21.65
2022-11-15T05:14:11.785Z,26.75
2022-11-15T05:16:38.733Z,22.77
2022-11-15T05:19:06.000Z,24.92
2022-11-15T05:21:33.590Z,20.48
2022-11-15T05:24:00.769Z,17.10
2022-11-15T05:26:27.844Z,18.05
2022-11-15T05:28:56.473Z,23.98
2022-11-15T05:31:23.847Z,27.25
2022-11-15T05:33:52.740Z,19.45
2022-11-15T05:36:37.150Z,28.15
2022-11-15T05:39:05.956Z,21.52
2022-11-15T05:41:40.438Z,19.98
2022-11-15T05:44:10.191Z,18.58
2022-11-15T05:46:40.632Z,17.92
2022-11-15T05:49:10.728Z,20.45
2022-11-15T05:51:37.477Z,20.70
2022-11-15T05:54:04.421Z,19.00
2022-11-15T05:56:31.300Z,20.42
2022-11-15T05:58:59.940Z,13.80
2022-11-15T06:01:28.081Z,17.55
2022-11-15T06:03:54.802Z,18.92
2022-11-15T06:06:21.548Z,16.27
2022-11-15T06:08:48.956Z,20.13
2022-11-15T06:11:15.879Z,13.93
2022-11-15T06:13:42.645Z,13.88
2022-11-15T06:16:09.236Z,13.80
2022-11-15T06:18:36.407Z,13.13
2022-11-15T06:21:03.308Z,14.32
2022-11-15T06:23:34.200Z,16.15
2022-11-15T06:26:02.374Z,14.63
2022-11-15T06:28:30.750Z,14.63
2022-11-15T06:30:58.083Z,14.10
2022-11-15T06:33:24.745Z,12.73
2022-11-15T06:35:51.408Z,16.65
2022-11-15T06:38:18.062Z,22.50
2022-11-15T06:40:44.772Z,16.70
2022-11-15T06:43:11.459Z,14.18
2022-11-15T06:45:38.112Z,22.00
2022-11-15T06:48:05.107Z,15.55
2022-11-15T06:50:31.738Z,16.25
2022-11-15T06:53:02.930Z,15.85
2022-11-15T06:55:29.531Z,19.30
2022-11-15T06:57:56.174Z,17.33
2022-11-15T07:00:23.614Z,20.60
2022-11-15T07:02:50.485Z,17.20
2022-11-15T07:05:17.312Z,16.23
2022-11-15T07:07:44.211Z,19.85
2022-11-15T07:10:11.140Z,22.10
2022-11-15T07:12:37.791Z,20.27
2022-11-15T07:15:04.799Z,16.25
2022-11-15T07:17:31.442Z,19.25
2022-11-15T07:19:58.190Z,18.95
2022-11-15T07:22:24.820Z,17.45
2022-11-15T07:24:51.424Z,23.58
2022-11-15T07:27:18.401Z,20.65
2022-11-15T07:29:45.255Z,28.02
2022-11-15T07:32:11.910Z,23.77
2022-11-15T07:34:38.864Z,24.70
2022-11-15T07:37:05.466Z,26.85
2022-11-15T07:39:32.088Z,35.28
2022-11-15T07:42:17.504Z,35.30
2022-11-15T07:44:44.134Z,34.35
2022-11-15T07:47:10.760Z,30.63
2022-11-15T07:49:37.409Z,26.58
2022-11-15T07:52:04.103Z,38.30
2022-11-15T07:54:30.693Z,41.80
2022-11-15T07:56:59.207Z,45.33
2022-11-15T07:59:27.793Z,37.80
2022-11-15T08:01:54.498Z,37.88
2022-11-15T08:04:21.232Z,45.10
2022-11-15T08:06:47.885Z,51.38
2022-11-15T08:09:14.531Z,47.15
2022-11-15T08:11:41.155Z,52.78
2022-11-15T08:14:07.823Z,46.78
2022-11-15T08:16:34.453Z,41.00
2022-11-15T08:19:01.259Z,36.08
2022-11-15T08:21:27.952Z,38.22
2022-11-15T08:23:54.703Z,35.78
2022-11-15T08:26:21.415Z,34.47
2022-11-15T08:28:48.142Z,37.42
2022-11-15T08:31:17.826Z,30.90
2022-11-15T08:33:45.475Z,28.92
2022-11-15T08:36:17.181Z,28.63
2022-11-15T08:38:44.263Z,27.70
2022-11-15T08:41:17.121Z,29.45
2022-11-15T08:43:43.762Z,26.75
2022-11-15T08:46:14.230Z,26.25
2022-11-15T08:48:40.835Z,28.13
2022-11-15T08:51:07.780Z,29.67
2022-11-15T08:53:35.339Z,25.92
2022-11-15T08:56:02.749Z,26.35
2022-11-15T08:58:29.916Z,29.88
2022-11-15T09:00:56.896Z,28.25
2022-11-15T09:03:23.666Z,24.83
2022-11-15T09:05:54.802Z,31.67
2022-11-15T09:08:49.118Z,36.30
2022-11-15T09:11:09.705Z,43.97
2022-11-15T09:13:38.092Z,40.60
2022-11-15T09:16:05.572Z,40.55
2022-11-15T09:18:33.231Z,33.90
2022-11-15T09:21:01.331Z,35.42
2022-11-15T09:23:28.005Z,46.80
2022-11-15T09:26:03.979Z,33.58
2022-11-15T09:28:31.538Z,37.78
2022-11-15T09:31:03.307Z,37.30
2022-11-15T09:33:30.563Z,32.85
2022-11-15T09:36:09.207Z,30.45
2022-11-15T09:38:36.756Z,32.55
2022-11-15T09:41:15.245Z,34.05
2022-11-15T09:44:07.674Z,30.05
2022-11-15T09:46:56.343Z,38.67
2022-11-15T09:49:23.834Z,41.08
2022-11-15T09:51:54.105Z,41.97
2022-11-15T09:54:55.754Z,37.13
2022-11-15T09:57:31.531Z,35.75
2022-11-15T10:00:30.755Z,39.22
2022-11-15T10:03:10.763Z,29.98
2022-11-15T10:05:46.547Z,25.92
2022-11-15T10:08:31.900Z,27.17
2022-11-15T10:11:35.641Z,28.83
2022-11-15T10:13:51.283Z,28.27
2022-11-15T10:16:51.072Z,29.85
2022-11-15T10:19:25.205Z,31.85
2022-11-15T10:22:07.074Z,30.77
2022-11-15T10:24:39.530Z,31.50
2022-11-15T10:27:13.130Z,37.42
2022-11-15T10:29:45.505Z,28.00
2022-11-15T10:32:14.131Z,29.08
2022-11-15T10:34:40.811Z,31.08
2022-11-15T10:37:07.536Z,27.38
2022-11-15T10:39:34.853Z,26.98
2022-11-15T10:42:28.642Z,33.15
2022-11-15T10:44:55.977Z,29.27
2022-11-15T10:47:37.642Z,27.17
2022-11-15T10:50:26.954Z,27.90
2022-11-15T10:52:54.227Z,30.08
2022-11-15T10:55:27.816Z,31.17
2022-11-15T10:58:03.021Z,28.02
2022-11-15T11:00:42.795Z,26.77
2022-11-15T11:03:30.287Z,21.67
2022-11-15T11:06:15.578Z,23.08
2022-11-15T11:08:58.791Z,27.90
2022-11-15T11:11:26.580Z,25.13
2022-11-15T11:13:53.821Z,22.35
2022-11-15T11:16:23.485Z,24.10
2022-11-15T11:19:17.815Z,19.08
2022-11-15T11:22:11.481Z,25.70
2022-11-15T11:24:48.795Z,22.92
2022-11-15T11:27:38.703Z,20.83
2022-11-15T11:30:09.670Z,23.45
2022-11-15T11:32:45.285Z,16.33
2022-11-15T11:35:23.921Z,20.88
2022-11-15T11:38:02.107Z,21.10
2022-11-15T11:41:00.126Z,20.27
2022-11-15T11:43:38.048Z,19.20
2022-11-15T11:46:18.664Z,19.30
2022-11-15T11:48:50.007Z,19.20
2022-11-15T11:51:22.679Z,22.42
2022-11-15T11:53:56.442Z,21.40
2022-11-15T11:56:32.759Z,22.75
2022-11-15T11:59:08.678Z,22.67
2022-11-15T12:01:42.264Z,21.77
2022-11-15T12:04:35.674Z,22.27
2022-11-15T12:07:10.230Z,26.15
2022-11-15T12:09:42.941Z,22.00
2022-11-15T12:12:51.558Z,32.90
2022-11-15T12:15:23.452Z,30.20
2022-11-15T12:17:50.827Z,31.88
2022-11-15T12:20:23.711Z,26.83
2022-11-15T12:23:26.426Z,20.73
2022-11-15T12:26:08.778Z,21.02
2022-11-15T12:29:06.884Z,32.50
2022-11-15T12:31:44.856Z,40.03
2022-11-15T12:34:23.691Z,28.33
2022-11-15T12:36:52.246Z,36.78
2022-11-15T12:39:19.736Z,35.22
2022-11-15T12:42:06.298Z,43.03
2022-11-15T12:44:32.892Z,42.42
2022-11-15T12:46:59.487Z,47.95
2022-11-15T12:49:29.141Z,59.05
2022-11-15T12:51:58.725Z,63.15
2022-11-15T12:54:25.396Z,74.13
2022-11-15T12:57:04.386Z,73.00
2022-11-15T13:00:05.336Z,69.78
2022-11-15T13:02:44.673Z,68.55
2022-11-15T13:05:17.360Z,71.22
2022-11-15T13:07:43.944Z,67.72
2022-11-15T13:10:13.457Z,58.90
2022-11-15T13:12:46.198Z,66.50
2022-11-15T13:15:12.800Z,67.60
2022-11-15T13:17:49.543Z,65.03
2022-11-15T13:20:16.191Z,70.78
2022-11-15T13:23:03.100Z,74.72
2022-11-15T13:25:38.500Z,70.65
2022-11-15T13:28:10.997Z,68.65
2022-11-15T13:30:38.732Z,63.63
2022-11-15T13:33:20.846Z,66.63
2022-11-15T13:35:50.332Z,68.43
2022-11-15T13:38:29.448Z,69.05
2022-11-15T13:40:57.753Z,70.15
2022-11-15T13:43:25.102Z,71.43
2022-11-15T13:46:19.576Z,73.40
2022-11-15T13:48:48.148Z,72.60
2022-11-15T13:51:23.820Z,79.30
2022-11-15T13:53:56.354Z,74.43
2022-11-15T13:56:23.695Z,71.85
2022-11-15T13:58:50.608Z,79.10
2022-11-15T14:01:21.745Z,80.43
2022-11-15T14:03:58.723Z,76.72
2022-11-15T14:06:28.388Z,79.82
2022-11-15T14:09:05.206Z,72.18
2022-11-15T14:11:31.999Z,75.32
2022-11-15T14:14:12.877Z,73.55
2022-11-15T14:16:48.621Z,88.22
2022-11-15T14:19:21.183Z,74.18
2022-11-15T14:22:12.716Z,78.50
2022-11-15T14:24:40.119Z,84.85
2022-11-15T14:27:22.207Z,80.38
2022-11-15T14:29:49.403Z,79.50
2022-11-15T14:32:25.183Z,70.65
2022-11-15T14:34:58.083Z,77.05
2022-11-15T14:37:34.046Z,80.65
2022-11-15T14:40:00.870Z,85.38
2022-11-15T14:42:27.534Z,81.82
2022-11-15T14:44:54.314Z,84.40
2022-11-15T14:47:21.122Z,81.25
2022-11-15T14:49:48.134Z,76.18
2022-11-15T14:52:31.612Z,75.90
2022-11-15T14:55:00.839Z,78.50
2022-11-15T14:57:27.500Z,74.70
2022-11-15T14:59:54.439Z,79.97
2022-11-15T15:02:27.856Z,77.55
2022-11-15T15:04:54.732Z,78.65
2022-11-15T15:07:21.906Z,80.07
2022-11-15T15:09:48.750Z,71.30
2022-11-15T15:12:23.614Z,75.38
2022-11-15T15:17:18.608Z,78.35
2022-11-15T15:19:45.289Z,60.65
2022-11-15T15:22:20.783Z,69.65
2022-11-15T15:24:47.434Z,72.57
2022-11-15T15:27:14.850Z,70.07
2022-11-15T15:33:32.324Z,67.95
2022-11-15T15:35:58.977Z,71.70
2022-11-15T15:38:26.046Z,66.90
2022-11-15T15:40:52.704Z,61.70
2022-11-15T15:43:19.385Z,65.55
2022-11-15T15:45:46.073Z,68.95
2022-11-15T15:48:15.328Z,65.45
2022-11-15T15:50:44.026Z,60.97
2022-11-15T15:53:12.114Z,54.63
2022-11-15T15:55:39.375Z,58.95
2022-11-15T15:58:06.123Z,62.13
2022-11-15T16:00:35.583Z,63.92
2022-11-15T16:03:02.526Z,57.58
2022-11-15T16:05:29.207Z,66.63
2022-11-15T16:07:55.894Z,62.63
2022-11-15T16:10:30.863Z,69.15
2022-11-15T16:12:58.972Z,67.88
2022-11-15T16:15:27.983Z,62.95
2022-11-15T16:17:57.097Z,65.63
2022-11-15T16:20:27.680Z,63.40
2022-11-15T16:22:54.315Z,62.78
2022-11-15T16:25:20.998Z,62.90
2022-11-15T16:27:47.780Z,61.65
2022-11-15T16:30:19.827Z,66.00
2022-11-15T16:32:47.076Z,64.30
2022-11-15T16:35:15.846Z,64.82
2022-11-15T16:37:44.975Z,68.55
2022-11-15T16:40:33.329Z,66.72
2022-11-15T16:43:02.434Z,70.68
2022-11-15T16:45:29.590Z,64.22
2022-11-15T16:47:56.958Z,69.50
2022-11-15T16:50:29.416Z,57.42
2022-11-15T16:52:58.114Z,59.97
2022-11-15T16:55:28.071Z,65.85
2022-11-15T16:57:55.812Z,55.35
2022-11-15T17:00:22.416Z,56.17
2022-11-15T17:02:50.571Z,64.47
2022-11-15T17:05:20.366Z,62.97
2022-11-15T17:07:50.552Z,57.97
2022-11-15T17:10:17.297Z,55.75
2022-11-15T17:12:44.235Z,54.13
2022-11-15T17:15:13.187Z,57.25
2022-11-15T17:17:40.873Z,60.60
2022-11-15T17:20:15.425Z,55.83
2022-11-15T17:22:42.424Z,63.33
2022-11-15T17:25:09.577Z,58.90
2022-11-15T17:27:36.438Z,57.20
2022-11-15T17:30:03.568Z,55.08
2022-11-15T17:32:30.168Z,55.22
2022-11-15T17:34:56.809Z,50.05
2022-11-15T17:37:23.447Z,49.90
2022-11-15T17:39:50.142Z,50.47
2022-11-15T17:42:16.785Z,50.53
2022-11-15T17:44:43.439Z,55.67
2022-11-15T17:47:10.057Z,59.85
2022-11-15T17:49:39.509Z,53.90
2022-11-15T17:52:06.862Z,55.55
2022-11-15T17:54:33.924Z,57.17
2022-11-15T17:57:00.650Z,62.28
2022-11-15T17:59:27.277Z,52.33
2022-11-15T18:01:56.811Z,57.90
2022-11-15T18:04:28.300Z,56.03
2022-11-15T18:06:56.581Z,60.45
2022-11-15T18:09:23.380Z,59.15
2022-11-15T18:11:51.748Z,54.95
2022-11-15T18:14:19.382Z,63.35
2022-11-15T18:16:46.315Z,63.13
2022-11-15T18:19:13.848Z,61.30
2022-11-15T18:21:56.452Z,57.20
2022-11-15T18:24:29.296Z,53.35
2022-11-15T18:26:56.793Z,69.53
2022-11-15T18:29:24.760Z,59.97
2022-11-15T18:31:55.543Z,66.32
2022-11-15T18:34:24.233Z,68.15
2022-11-15T18:36:52.904Z,63.03
2022-11-15T18:39:20.156Z,62.38
2022-11-15T18:41:47.777Z,61.83
2022-11-15T18:44:15.068Z,72.88
2022-11-15T18:46:42.134Z,65.30
2022-11-15T18:49:10.114Z,58.15
2022-11-15T18:51:43.391Z,72.43
2022-11-15T18:54:12.090Z,50.55
2022-11-15T18:56:39.491Z,69.72
2022-11-15T18:59:06.843Z,70.22
2022-11-15T19:01:35.657Z,64.90
2022-11-15T19:04:07.992Z,66.95
2022-11-15T19:06:39.022Z,66.85
2022-11-15T19:09:06.364Z,65.78
2022-11-15T19:11:35.951Z,63.42
2022-11-15T19:14:05.777Z,66.15
2022-11-15T19:16:36.515Z,60.78
2022-11-15T19:19:06.436Z,60.15
2022-11-15T19:21:33.670Z,53.13
2022-11-15T19:24:01.490Z,61.65
2022-11-15T19:26:29.368Z,59.38
2022-11-15T19:28:58.277Z,63.88
2022-11-15T19:31:26.514Z,58.83
2022-11-15T19:33:53.950Z,59.10
2022-11-15T19:36:23.826Z,62.30
2022-11-15T19:38:50.663Z,57.80
2022-11-15T19:41:19.569Z,59.08
2022-11-15T19:43:50.974Z,65.22
2022-11-15T19:46:20.618Z,61.72
2022-11-15T19:48:47.983Z,61.42
2022-11-15T19:51:19.388Z,59.42
2022-11-15T19:53:45.990Z,56.05
2022-11-15T19:56:17.769Z,60.30
2022-11-15T19:58:45.200Z,60.45
2022-11-15T20:01:22.119Z,59.63
2022-11-15T20:03:50.888Z,60.50
2022-11-15T20:06:19.792Z,48.38
2022-11-15T20:08:47.137Z,49.83
2022-11-15T20:11:15.497Z,56.38
2022-11-15T20:13:43.040Z,57.63
2022-11-15T20:16:14.974Z,48.90
2022-11-15T20:18:41.761Z,52.75
2022-11-15T20:21:09.175Z,58.28
2022-11-15T20:23:35.816Z,63.90
2022-11-15T20:26:02.452Z,63.00
2022-11-15T20:28:29.509Z,52.10
2022-11-15T20:31:00.909Z,63.03
2022-11-15T20:33:28.249Z,54.88
2022-11-15T20:35:54.909Z,54.85
2022-11-15T20:38:21.938Z,63.00
2022-11-15T20:40:50.090Z,55.67
2022-11-15T20:43:19.218Z,59.05
2022-11-15T20:45:47.725Z,52.75
2022-11-15T20:48:15.064Z,51.83
2022-11-15T20:50:43.908Z,43.10
2022-11-15T20:53:13.002Z,45.72
2022-11-15T20:55:41.470Z,45.83
2022-11-15T20:58:09.515Z,52.33
2022-11-15T21:00:37.050Z,64.35
2022-11-15T21:03:06.953Z,55.47
2022-11-15T21:05:41.761Z,54.72
2022-11-15T21:08:09.610Z,44.50
2022-11-15T21:10:54.432Z,61.63
2022-11-15T21:13:21.762Z,50.03
2022-11-15T21:15:48.656Z,50.30
2022-11-15T21:18:15.747Z,49.75
2022-11-15T21:20:42.572Z,56.10
2022-11-15T21:23:09.623Z,50.70
2022-11-15T21:25:36.287Z,51.30
2022-11-15T21:28:03.216Z,49.67
2022-11-15T21:30:30.552Z,50.85
2022-11-15T21:32:57.210Z,50.13
2022-11-15T21:35:24.291Z,58.10
2022-11-15T21:37:56.538Z,53.55
2022-11-15T21:40:24.584Z,48.22
2022-11-15T21:42:51.227Z,50.90
2022-11-15T21:45:17.846Z,52.25
2022-11-15T21:47:46.388Z,43.83
2022-11-15T21:50:13.948Z,48.10
2022-11-15T21:52:41.072Z,48.80
2022-11-15T21:55:08.527Z,44.42
2022-11-15T21:57:35.181Z,50.40
2022-11-15T22:00:20.467Z,45.85
2022-11-15T22:02:47.077Z,44.03
2022-11-15T22:05:13.739Z,38.92
2022-11-15T22:07:40.650Z,47.22
2022-11-15T22:10:07.599Z,49.85
2022-11-15T22:12:34.209Z,41.00
2022-11-15T22:15:00.851Z,45.03
2022-11-15T22:17:47.501Z,39.88
2022-11-15T22:20:43.989Z,42.60
2022-11-15T22:23:02.286Z,44.25
2022-11-15T22:25:30.123Z,41.20
2022-11-15T22:27:56.809Z,48.17
2022-11-15T22:30:24.281Z,40.78
2022-11-15T22:32:51.000Z,46.88
2022-11-15T22:35:17.865Z,45.35
2022-11-15T22:37:44.552Z,38.40
2022-11-15T22:40:11.517Z,39.22
2022-11-15T22:42:38.198Z,38.45
2022-11-15T22:45:05.257Z,38.08
2022-11-15T22:47:31.959Z,37.15
2022-11-15T22:49:58.623Z,38.03
2022-11-15T22:52:25.374Z,33.88
2022-11-15T22:54:52.112Z,33.55
2022-11-15T22:57:18.813Z,28.02
2022-11-15T22:59:45.973Z,29.23
2022-11-15T23:02:12.646Z,32.78
2022-11-15T23:04:39.432Z,30.75
2022-11-15T23:07:06.175Z,37.85
2022-11-15T23:09:32.968Z,35.25
2022-11-15T23:12:18.235Z,28.80
2022-11-15T23:17:11.474Z,32.45
2022-11-15T23:19:38.234Z,31.05
2022-11-15T23:22:23.634Z,28.23
2022-11-15T23:24:51.838Z,27.00
2022-11-15T23:27:20.083Z,31.45
2022-11-15T23:30:06.307Z,27.98
2022-11-15T23:32:51.752Z,32.95
2022-11-15T23:35:18.434Z,32.55
2022-11-15T23:37:45.421Z,30.48
2022-11-15T23:40:12.904Z,32.05
2022-11-15T23:42:39.688Z,28.27
2022-11-15T23:45:07.081Z,33.67
2022-11-15T23:47:33.909Z,26.80
2022-11-15T23:50:00.609Z,30.00
2022-11-15T23:52:27.291Z,27.92
2022-11-15T23:54:54.004Z,25.20
2022-11-15T23:57:20.751Z,23.60
2022-11-15T23:59:47.779Z,25.05
